createdAt,value
2017-02-22T00:00:21.432Z,23.59
2017-02-22T00:01:01.923Z,23.57
2017-02-22T00:01:42.408Z,23.59
2017-02-22T00:02:22.903Z,23.57
2017-02-22T00:03:03.400Z,23.59
2017-02-22T00:03:43.885Z,23.56
2017-02-22T00:04:24.368Z,23.62
2017-02-22T00:05:04.872Z,23.56
2017-02-22T00:05:45.370Z,23.6
2017-02-22T00:06:25.875Z,23.62
2017-02-22T00:07:06.362Z,23.59
2017-02-22T00:07:46.849Z,23.67
2017-02-22T00:08:27.503Z,23.66
2017-02-22T00:09:07.991Z,23.67
2017-02-22T00:09:48.480Z,23.7
2017-02-22T00:10:28.976Z,23.56
2017-02-22T00:11:09.465Z,23.56
2017-02-22T00:11:49.972Z,23.59
2017-02-22T00:12:30.466Z,23.59
2017-02-22T00:13:10.974Z,23.67
2017-02-22T00:13:51.472Z,23.66
2017-02-22T00:14:31.972Z,23.56
2017-02-22T00:15:12.469Z,23.56
2017-02-22T00:15:52.972Z,23.56
2017-02-22T00:16:33.459Z,23.55
2017-02-22T00:17:13.944Z,23.55
2017-02-22T00:17:54.427Z,23.59
2017-02-22T00:18:34.921Z,23.7
2017-02-22T00:19:15.412Z,23.66
2017-02-22T00:19:55.901Z,23.59
2017-02-22T00:20:36.393Z,23.71
2017-02-22T00:21:16.887Z,23.56
2017-02-22T00:21:57.380Z,23.6
2017-02-22T00:22:37.866Z,23.62
2017-02-22T00:23:18.359Z,23.66
2017-02-22T00:23:58.857Z,23.7
2017-02-22T00:24:39.347Z,23.66
2017-02-22T00:25:19.844Z,23.62
2017-02-22T00:26:00.361Z,23.7
2017-02-22T00:26:40.853Z,23.64
2017-02-22T00:27:21.348Z,23.7
2017-02-22T00:28:01.842Z,23.63
2017-02-22T00:28:42.341Z,23.66
2017-02-22T00:29:22.858Z,23.64
2017-02-22T00:30:03.340Z,23.71
2017-02-22T00:30:43.828Z,23.66
2017-02-22T00:31:24.314Z,23.7
2017-02-22T00:32:04.805Z,23.64
2017-02-22T00:32:45.300Z,23.62
2017-02-22T00:33:25.790Z,23.66
2017-02-22T00:34:06.300Z,23.67
2017-02-22T00:34:46.793Z,23.63
2017-02-22T00:35:27.297Z,23.64
2017-02-22T00:36:07.791Z,23.74
2017-02-22T00:36:48.287Z,23.63
2017-02-22T00:37:28.792Z,23.66
2017-02-22T00:38:09.296Z,23.62
2017-02-22T00:38:49.780Z,23.77
2017-02-22T00:39:30.273Z,23.7
2017-02-22T00:40:10.766Z,23.63
2017-02-22T00:40:51.259Z,23.67
2017-02-22T00:41:31.740Z,23.6
2017-02-22T00:42:12.242Z,23.74
2017-02-22T00:42:52.896Z,23.7
2017-02-22T00:43:33.401Z,23.64
2017-02-22T00:44:13.912Z,23.74
2017-02-22T00:44:54.391Z,23.6
2017-02-22T00:45:34.880Z,23.72
2017-02-22T00:46:15.370Z,23.64
2017-02-22T00:46:55.849Z,23.72
2017-02-22T00:47:36.365Z,23.7
2017-02-22T00:48:16.852Z,23.7
2017-02-22T00:48:57.352Z,23.67
2017-02-22T00:49:37.837Z,23.74
2017-02-22T00:50:18.326Z,23.67
2017-02-22T00:50:58.827Z,23.59
2017-02-22T00:51:39.327Z,23.64
2017-02-22T00:52:19.829Z,23.67
2017-02-22T00:53:00.324Z,23.72
2017-02-22T00:53:40.806Z,23.71
2017-02-22T00:54:21.297Z,23.57
2017-02-22T00:55:01.803Z,23.67
2017-02-22T00:55:42.272Z,23.7
2017-02-22T00:56:22.782Z,23.66
2017-02-22T00:57:03.281Z,23.67
2017-02-22T00:57:43.771Z,23.72
2017-02-22T00:58:24.277Z,23.72
2017-02-22T00:59:04.764Z,23.67
2017-02-22T00:59:45.250Z,23.67
2017-02-22T01:00:25.735Z,23.75
2017-02-22T01:01:06.226Z,23.67
2017-02-22T01:01:46.722Z,23.7
2017-02-22T01:02:27.214Z,23.6
2017-02-22T01:03:07.722Z,23.67
2017-02-22T01:03:48.215Z,23.66
2017-02-22T01:04:28.722Z,23.7
2017-02-22T01:05:09.221Z,23.67
2017-02-22T01:05:49.713Z,23.67
2017-02-22T01:06:30.223Z,23.71
2017-02-22T01:07:10.716Z,23.75
2017-02-22T01:07:51.199Z,23.77
2017-02-22T01:08:31.966Z,23.7
2017-02-22T01:09:12.445Z,23.74
2017-02-22T01:09:52.938Z,23.75
2017-02-22T01:10:33.437Z,23.74
2017-02-22T01:11:13.917Z,23.74
2017-02-22T01:11:54.399Z,23.72
2017-02-22T01:12:34.890Z,23.64
2017-02-22T01:13:15.385Z,23.74
2017-02-22T01:13:55.881Z,23.74
2017-02-22T01:14:36.368Z,23.66
2017-02-22T01:15:16.865Z,23.74
2017-02-22T01:15:57.362Z,23.64
2017-02-22T01:16:37.857Z,23.66
2017-02-22T01:17:18.352Z,23.66
2017-02-22T01:17:58.859Z,23.67
2017-02-22T01:18:39.357Z,23.7
2017-02-22T01:19:19.841Z,23.63
2017-02-22T01:20:00.333Z,23.7
2017-02-22T01:20:40.823Z,23.66
2017-02-22T01:21:21.323Z,23.66
2017-02-22T01:22:01.810Z,23.63
2017-02-22T01:22:42.307Z,23.67
2017-02-22T01:23:22.798Z,23.66
2017-02-22T01:24:03.283Z,23.67
2017-02-22T01:24:43.775Z,23.7
2017-02-22T01:25:24.262Z,23.71
2017-02-22T01:26:04.767Z,23.63
2017-02-22T01:26:45.253Z,23.6
2017-02-22T01:27:25.751Z,23.64
2017-02-22T01:28:06.249Z,23.63
2017-02-22T01:28:46.739Z,23.62
2017-02-22T01:29:27.237Z,23.7
2017-02-22T01:30:07.730Z,23.57
2017-02-22T01:30:48.223Z,23.7
2017-02-22T01:31:28.706Z,23.7
2017-02-22T01:32:09.217Z,23.63
2017-02-22T01:32:49.696Z,23.59
2017-02-22T01:33:30.194Z,23.6
2017-02-22T01:34:10.694Z,23.59
2017-02-22T01:34:51.182Z,23.56
2017-02-22T01:35:31.667Z,23.62
2017-02-22T01:36:12.161Z,23.66
2017-02-22T01:36:52.662Z,23.6
2017-02-22T01:37:33.157Z,23.6
2017-02-22T01:38:13.660Z,23.66
2017-02-22T01:38:54.147Z,23.66
2017-02-22T01:39:34.640Z,23.67
2017-02-22T01:40:15.134Z,23.7
2017-02-22T01:40:55.624Z,23.63
2017-02-22T01:41:36.136Z,23.66
2017-02-22T01:42:16.624Z,23.6
2017-02-22T01:42:57.130Z,23.7
2017-02-22T01:43:37.618Z,23.66
2017-02-22T01:44:18.108Z,23.64
2017-02-22T01:44:58.604Z,23.7
2017-02-22T01:45:39.103Z,23.63
2017-02-22T01:46:19.581Z,23.63
2017-02-22T01:47:00.077Z,23.7
2017-02-22T01:47:40.577Z,23.67
2017-02-22T01:48:21.070Z,23.62
2017-02-22T01:49:01.576Z,23.72
2017-02-22T01:49:42.056Z,23.66
2017-02-22T01:50:22.545Z,23.66
2017-02-22T01:51:03.035Z,23.63
2017-02-22T01:51:43.546Z,23.63
2017-02-22T01:52:24.043Z,23.66
2017-02-22T01:53:04.544Z,23.67
2017-02-22T01:53:45.033Z,23.75
2017-02-22T01:54:25.543Z,23.67
2017-02-22T01:55:06.192Z,23.62
2017-02-22T01:55:46.683Z,23.63
2017-02-22T01:56:27.170Z,23.71
2017-02-22T01:57:07.669Z,23.72
2017-02-22T01:57:48.156Z,23.62
2017-02-22T01:58:28.644Z,23.71
2017-02-22T01:59:09.127Z,23.64
2017-02-22T01:59:49.621Z,23.7
2017-02-22T02:00:30.117Z,23.72
2017-02-22T02:01:10.610Z,23.66
2017-02-22T02:01:51.118Z,23.6
2017-02-22T02:02:31.616Z,23.57
2017-02-22T02:03:12.112Z,23.72
2017-02-22T02:03:52.603Z,23.67
2017-02-22T02:04:33.319Z,23.74
2017-02-22T02:05:13.818Z,23.71
2017-02-22T02:05:54.314Z,23.63
2017-02-22T02:06:34.805Z,23.62
2017-02-22T02:07:15.306Z,23.67
2017-02-22T02:07:55.797Z,23.64
2017-02-22T02:08:36.286Z,23.7
2017-02-22T02:09:16.784Z,23.7
2017-02-22T02:09:57.283Z,23.64
2017-02-22T02:10:37.765Z,23.64
2017-02-22T02:11:18.256Z,23.63
2017-02-22T02:11:58.758Z,23.64
2017-02-22T02:12:39.247Z,23.6
2017-02-22T02:13:19.748Z,23.71
2017-02-22T02:14:00.247Z,23.62
2017-02-22T02:14:40.732Z,23.74
2017-02-22T02:15:21.228Z,23.71
2017-02-22T02:16:01.722Z,23.59
2017-02-22T02:16:42.204Z,23.64
2017-02-22T02:17:22.695Z,23.67
2017-02-22T02:18:03.194Z,23.63
2017-02-22T02:18:43.705Z,23.62
2017-02-22T02:19:24.200Z,23.64
2017-02-22T02:20:04.690Z,23.7
2017-02-22T02:20:45.175Z,23.62
2017-02-22T02:21:25.667Z,23.63
2017-02-22T02:22:06.165Z,23.63
2017-02-22T02:22:46.647Z,23.64
2017-02-22T02:23:27.142Z,23.71
2017-02-22T02:24:07.647Z,23.74
2017-02-22T02:24:48.131Z,23.67
2017-02-22T02:25:28.621Z,23.71
2017-02-22T02:26:09.114Z,23.63
2017-02-22T02:26:49.610Z,23.67
2017-02-22T02:27:30.095Z,23.66
2017-02-22T02:28:10.594Z,23.64
2017-02-22T02:28:51.092Z,23.66
2017-02-22T02:29:31.733Z,23.63
2017-02-22T02:30:12.239Z,23.71
2017-02-22T02:30:52.743Z,23.67
2017-02-22T02:31:33.247Z,23.6
2017-02-22T02:32:13.740Z,23.67
2017-02-22T02:32:54.231Z,23.75
2017-02-22T02:33:34.732Z,23.72
2017-02-22T02:34:15.235Z,23.72
2017-02-22T02:34:55.728Z,23.72
2017-02-22T02:35:36.237Z,23.71
2017-02-22T02:36:16.730Z,23.75
2017-02-22T02:36:57.228Z,23.74
2017-02-22T02:37:37.733Z,23.75
2017-02-22T02:38:18.222Z,23.71
2017-02-22T02:38:58.709Z,23.7
2017-02-22T02:39:39.205Z,23.71
2017-02-22T02:40:19.699Z,23.71
2017-02-22T02:41:00.186Z,23.66
2017-02-22T02:41:40.676Z,23.66
2017-02-22T02:42:21.177Z,23.64
2017-02-22T02:43:01.666Z,23.77
2017-02-22T02:43:42.173Z,23.75
2017-02-22T02:44:22.683Z,23.78
2017-02-22T02:45:03.181Z,23.75
2017-02-22T02:45:43.671Z,23.7
2017-02-22T02:46:24.173Z,23.74
2017-02-22T02:47:04.675Z,23.67
2017-02-22T02:47:45.173Z,23.75
2017-02-22T02:48:25.666Z,23.77
2017-02-22T02:49:06.167Z,23.77
2017-02-22T02:49:46.666Z,23.74
2017-02-22T02:50:27.164Z,23.78
2017-02-22T02:51:07.659Z,23.74
2017-02-22T02:51:48.143Z,23.75
2017-02-22T02:52:28.629Z,23.67
2017-02-22T02:53:09.144Z,23.7
2017-02-22T02:53:49.639Z,23.7
2017-02-22T02:54:30.134Z,23.74
2017-02-22T02:55:10.625Z,23.78
2017-02-22T02:55:51.122Z,23.78
2017-02-22T02:56:31.615Z,23.75
2017-02-22T02:57:12.113Z,23.71
2017-02-22T02:57:52.611Z,23.72
2017-02-22T02:58:33.106Z,23.72
2017-02-22T02:59:13.611Z,23.72
2017-02-22T02:59:54.102Z,23.71
2017-02-22T03:00:34.833Z,23.72
2017-02-22T03:01:15.339Z,23.75
2017-02-22T03:01:55.825Z,23.78
2017-02-22T03:02:36.317Z,23.75
2017-02-22T03:03:16.812Z,23.74
2017-02-22T03:03:57.304Z,23.82
2017-02-22T03:04:37.805Z,23.78
2017-02-22T03:05:18.302Z,23.77
2017-02-22T03:05:58.789Z,23.75
2017-02-22T03:08:11.602Z,23.84
2017-02-22T03:08:52.086Z,23.77
2017-02-22T03:09:32.575Z,23.75
2017-02-22T03:10:13.070Z,23.78
2017-02-22T03:10:53.548Z,23.77
2017-02-22T03:11:34.043Z,23.74
2017-02-22T03:12:14.523Z,23.81
2017-02-22T03:12:55.008Z,23.78
2017-02-22T03:13:35.491Z,23.72
2017-02-22T03:14:15.982Z,23.74
2017-02-22T03:14:56.486Z,23.67
2017-02-22T03:15:36.978Z,23.74
2017-02-22T03:16:17.481Z,23.81
2017-02-22T03:16:57.964Z,23.81
2017-02-22T03:17:38.460Z,23.81
2017-02-22T03:18:18.959Z,23.77
2017-02-22T03:18:59.452Z,23.78
2017-02-22T03:19:39.964Z,23.74
2017-02-22T03:20:20.453Z,23.77
2017-02-22T03:21:00.957Z,23.79
2017-02-22T03:21:41.450Z,23.81
2017-02-22T03:22:21.931Z,23.85
2017-02-22T03:23:02.411Z,23.78
2017-02-22T03:23:42.905Z,23.79
2017-02-22T03:24:23.553Z,23.82
2017-02-22T03:25:04.058Z,23.79
2017-02-22T03:25:44.547Z,23.71
2017-02-22T03:26:25.047Z,23.78
2017-02-22T03:27:05.542Z,23.77
2017-02-22T03:27:46.030Z,23.81
2017-02-22T03:28:26.525Z,23.81
2017-02-22T03:29:07.028Z,23.77
2017-02-22T03:29:47.503Z,23.85
2017-02-22T03:30:28.021Z,23.82
2017-02-22T03:31:08.508Z,23.78
2017-02-22T03:31:49.002Z,23.82
2017-02-22T03:32:29.495Z,23.85
2017-02-22T03:33:09.988Z,23.78
2017-02-22T03:33:50.472Z,23.82
2017-02-22T03:34:30.957Z,23.77
2017-02-22T03:35:11.451Z,23.79
2017-02-22T03:35:51.947Z,23.74
2017-02-22T03:36:32.430Z,23.77
2017-02-22T03:37:12.920Z,23.85
2017-02-22T03:37:53.411Z,23.77
2017-02-22T03:38:33.910Z,23.82
2017-02-22T03:39:14.396Z,23.77
2017-02-22T03:39:54.887Z,23.74
2017-02-22T03:40:35.387Z,23.79
2017-02-22T03:41:15.878Z,23.78
2017-02-22T03:41:56.361Z,23.74
2017-02-22T03:42:36.855Z,23.79
2017-02-22T03:43:17.353Z,23.82
2017-02-22T03:43:57.834Z,23.82
2017-02-22T03:44:38.319Z,23.81
2017-02-22T03:45:18.831Z,23.75
2017-02-22T03:45:59.321Z,23.79
2017-02-22T03:46:39.834Z,23.77
2017-02-22T03:47:20.328Z,23.87
2017-02-22T03:48:00.828Z,23.89
2017-02-22T03:48:41.318Z,23.82
2017-02-22T03:49:21.819Z,23.77
2017-02-22T03:50:02.332Z,23.77
2017-02-22T03:50:42.827Z,23.89
2017-02-22T03:51:23.311Z,23.79
2017-02-22T03:52:03.820Z,23.78
2017-02-22T03:52:44.319Z,23.82
2017-02-22T03:53:24.809Z,23.82
2017-02-22T03:54:05.321Z,23.81
2017-02-22T03:54:45.827Z,23.79
2017-02-22T03:55:26.324Z,23.78
2017-02-22T03:56:06.823Z,23.84
2017-02-22T03:56:47.312Z,23.77
2017-02-22T03:57:27.821Z,23.82
2017-02-22T03:58:08.312Z,23.89
2017-02-22T03:58:48.798Z,23.92
2017-02-22T03:59:29.294Z,23.85
2017-02-22T04:00:09.785Z,23.85
2017-02-22T04:00:50.274Z,23.9
2017-02-22T04:01:30.994Z,23.89
2017-02-22T04:02:11.474Z,23.89
2017-02-22T04:02:51.958Z,23.93
2017-02-22T04:03:32.445Z,23.9
2017-02-22T04:04:12.934Z,23.93
2017-02-22T04:04:53.432Z,23.89
2017-02-22T04:05:33.917Z,23.93
2017-02-22T04:06:14.411Z,23.97
2017-02-22T04:06:54.912Z,23.94
2017-02-22T04:07:35.400Z,23.85
2017-02-22T04:08:15.890Z,23.87
2017-02-22T04:08:56.377Z,23.85
2017-02-22T04:09:36.884Z,23.9
2017-02-22T04:10:17.365Z,23.92
2017-02-22T04:10:57.863Z,23.85
2017-02-22T04:11:38.359Z,23.92
2017-02-22T04:12:18.843Z,23.94
2017-02-22T04:12:59.333Z,23.94
2017-02-22T04:13:39.819Z,23.92
2017-02-22T04:14:20.310Z,23.85
2017-02-22T04:15:00.803Z,23.85
2017-02-22T04:15:41.292Z,23.94
2017-02-22T04:16:21.796Z,23.93
2017-02-22T04:17:02.292Z,23.93
2017-02-22T04:17:42.780Z,23.92
2017-02-22T04:18:23.295Z,23.92
2017-02-22T04:19:03.802Z,23.9
2017-02-22T04:19:44.299Z,23.87
2017-02-22T04:20:24.801Z,23.92
2017-02-22T04:21:05.293Z,23.89
2017-02-22T04:21:45.775Z,23.93
2017-02-22T04:22:26.269Z,23.96
2017-02-22T04:23:06.772Z,23.92
2017-02-22T04:23:47.255Z,23.89
2017-02-22T04:24:27.765Z,23.89
2017-02-22T04:25:08.247Z,23.93
2017-02-22T04:25:48.739Z,23.89
2017-02-22T04:26:29.244Z,23.85
2017-02-22T04:27:09.727Z,23.94
2017-02-22T04:27:50.220Z,23.89
2017-02-22T04:28:30.711Z,23.92
2017-02-22T04:29:11.207Z,23.9
2017-02-22T04:29:51.696Z,23.85
2017-02-22T04:30:32.181Z,23.9
2017-02-22T04:31:12.683Z,23.96
2017-02-22T04:31:53.181Z,23.94
2017-02-22T04:32:33.677Z,23.85
2017-02-22T04:33:14.193Z,23.97
2017-02-22T04:33:54.685Z,23.97
2017-02-22T04:34:35.179Z,23.92
2017-02-22T04:35:15.683Z,23.99
2017-02-22T04:35:56.176Z,23.93
2017-02-22T04:36:36.669Z,23.89
2017-02-22T04:37:17.171Z,23.85
2017-02-22T04:37:57.657Z,23.99
2017-02-22T04:38:38.151Z,23.92
2017-02-22T04:39:18.647Z,23.92
2017-02-22T04:39:59.132Z,23.96
2017-02-22T04:40:39.614Z,23.87
2017-02-22T04:41:20.101Z,23.92
2017-02-22T04:42:00.584Z,23.87
2017-02-22T04:42:41.065Z,23.93
2017-02-22T04:43:23.296Z,23.85
2017-02-22T04:44:04.928Z,23.87
2017-02-22T04:44:47.323Z,23.89
2017-02-22T04:45:29.315Z,23.85
2017-02-22T04:46:11.285Z,23.93
2017-02-22T04:46:51.790Z,23.82
2017-02-22T04:47:33.838Z,23.85
2017-02-22T04:48:14.325Z,23.87
2017-02-22T04:48:56.784Z,23.92
2017-02-22T04:49:36.099Z,23.89
2017-02-22T04:50:19.339Z,23.87
2017-02-22T04:51:00.604Z,23.93
2017-02-22T04:51:42.009Z,23.92
2017-02-22T04:52:23.786Z,23.89
2017-02-22T04:53:03.421Z,23.92
2017-02-22T04:53:45.839Z,23.85
2017-02-22T04:54:28.317Z,23.85
2017-02-22T04:55:11.866Z,23.9
2017-02-22T04:55:54.380Z,23.87
2017-02-22T04:56:39.352Z,23.89
2017-02-22T04:57:23.861Z,23.94
2017-02-22T04:58:04.264Z,23.89
2017-02-22T04:58:44.762Z,23.96
2017-02-22T04:59:25.495Z,23.92
2017-02-22T05:00:09.354Z,23.89
2017-02-22T05:00:51.851Z,23.89
2017-02-22T05:01:35.356Z,23.94
2017-02-22T05:02:15.294Z,23.89
2017-02-22T05:02:55.778Z,23.85
2017-02-22T05:03:36.265Z,23.85
2017-02-22T05:04:16.770Z,23.85
2017-02-22T05:05:00.327Z,23.87
2017-02-22T05:05:40.818Z,23.97
2017-02-22T05:06:21.319Z,23.85
2017-02-22T05:07:01.813Z,23.93
2017-02-22T05:07:42.316Z,23.94
2017-02-22T05:08:22.822Z,23.96
2017-02-22T05:09:03.317Z,23.89
2017-02-22T05:09:43.807Z,23.87
2017-02-22T05:10:24.315Z,23.99
2017-02-22T05:11:04.810Z,23.97
2017-02-22T05:11:45.319Z,23.96
2017-02-22T05:12:25.807Z,23.96
2017-02-22T05:13:06.324Z,23.9
2017-02-22T05:13:46.817Z,23.87
2017-02-22T05:14:27.313Z,23.89
2017-02-22T05:15:07.786Z,23.9
2017-02-22T05:15:48.282Z,23.89
2017-02-22T05:16:28.780Z,23.89
2017-02-22T05:17:09.278Z,23.92
2017-02-22T05:17:49.771Z,24
2017-02-22T05:18:30.260Z,23.93
2017-02-22T05:19:10.756Z,23.89
2017-02-22T05:19:51.254Z,23.94
2017-02-22T05:20:31.757Z,23.89
2017-02-22T05:21:12.250Z,23.97
2017-02-22T05:21:52.755Z,24.03
2017-02-22T05:22:33.248Z,24.02
2017-02-22T05:23:13.760Z,24
2017-02-22T05:23:54.256Z,23.93
2017-02-22T05:24:34.751Z,23.87
2017-02-22T05:25:15.247Z,23.94
2017-02-22T05:25:55.754Z,23.97
2017-02-22T05:26:36.237Z,23.85
2017-02-22T05:27:16.723Z,23.92
2017-02-22T05:27:57.209Z,23.97
2017-02-22T05:28:37.701Z,24.08
2017-02-22T05:29:18.195Z,24
2017-02-22T05:29:58.682Z,23.92
2017-02-22T05:30:39.175Z,24.02
2017-02-22T05:31:19.666Z,23.92
2017-02-22T05:32:00.171Z,23.92
2017-02-22T05:32:40.664Z,23.93
2017-02-22T05:33:21.166Z,23.97
2017-02-22T05:34:01.652Z,23.93
2017-02-22T05:34:42.145Z,23.99
2017-02-22T05:35:22.640Z,24
2017-02-22T05:36:03.132Z,23.96
2017-02-22T05:36:43.613Z,24
2017-02-22T05:37:24.096Z,23.9
2017-02-22T05:38:04.588Z,24.07
2017-02-22T05:38:45.069Z,24.08
2017-02-22T05:39:25.585Z,23.96
2017-02-22T05:40:06.083Z,23.93
2017-02-22T05:40:46.578Z,24.03
2017-02-22T05:41:27.072Z,24.07
2017-02-22T05:42:07.574Z,23.97
2017-02-22T05:42:48.064Z,23.85
2017-02-22T05:43:28.556Z,23.94
2017-02-22T05:44:09.049Z,23.94
2017-02-22T05:44:49.521Z,24
2017-02-22T05:45:30.018Z,24.04
2017-02-22T05:46:10.531Z,23.99
2017-02-22T05:46:51.026Z,24
2017-02-22T05:47:31.537Z,23.97
2017-02-22T05:48:12.011Z,23.93
2017-02-22T05:48:52.493Z,23.94
2017-02-22T05:49:32.986Z,23.96
2017-02-22T05:50:13.502Z,24.04
2017-02-22T05:50:53.981Z,24.08
2017-02-22T05:51:34.501Z,24.02
2017-02-22T05:52:14.978Z,24.08
2017-02-22T05:52:55.476Z,24.03
2017-02-22T05:53:35.971Z,24.03
2017-02-22T05:54:16.493Z,24.07
2017-02-22T05:54:56.977Z,24.03
2017-02-22T05:55:37.471Z,24.02
2017-02-22T05:56:17.967Z,24.03
2017-02-22T05:56:58.459Z,23.97
2017-02-22T05:57:38.968Z,23.96
2017-02-22T05:58:19.464Z,23.94
2017-02-22T05:58:59.963Z,24
2017-02-22T05:59:40.448Z,23.96
2017-02-22T06:00:20.935Z,23.93
2017-02-22T06:01:01.432Z,23.92
2017-02-22T06:01:41.927Z,23.92
2017-02-22T06:02:22.421Z,23.92
2017-02-22T06:03:03.133Z,24
2017-02-22T06:03:43.625Z,23.9
2017-02-22T06:04:24.116Z,23.94
2017-02-22T06:05:04.598Z,24
2017-02-22T06:05:45.085Z,23.93
2017-02-22T06:06:25.583Z,23.99
2017-02-22T06:07:06.069Z,23.99
2017-02-22T06:07:46.584Z,23.89
2017-02-22T06:08:27.074Z,23.93
2017-02-22T06:09:07.550Z,23.99
2017-02-22T06:09:48.035Z,23.94
2017-02-22T06:10:28.523Z,23.94
2017-02-22T06:11:09.030Z,24.02
2017-02-22T06:11:49.516Z,23.85
2017-02-22T06:12:29.995Z,23.96
2017-02-22T06:13:10.503Z,23.89
2017-02-22T06:13:51.003Z,23.93
2017-02-22T06:14:31.488Z,23.99
2017-02-22T06:15:11.984Z,23.96
2017-02-22T06:15:52.479Z,23.97
2017-02-22T06:16:32.959Z,23.94
2017-02-22T06:17:13.448Z,23.97
2017-02-22T06:17:53.952Z,23.92
2017-02-22T06:18:34.453Z,23.93
2017-02-22T06:19:14.952Z,23.93
2017-02-22T06:19:55.434Z,23.96
2017-02-22T06:20:35.940Z,23.89
2017-02-22T06:21:16.429Z,24
2017-02-22T06:21:56.944Z,24.02
2017-02-22T06:22:37.428Z,23.94
2017-02-22T06:23:17.930Z,23.97
2017-02-22T06:23:58.456Z,24.02
2017-02-22T06:24:38.949Z,23.89
2017-02-22T06:25:19.439Z,24
2017-02-22T06:25:59.942Z,24
2017-02-22T06:26:40.437Z,23.97
2017-02-22T06:27:20.928Z,23.96
2017-02-22T06:28:01.439Z,23.97
2017-02-22T06:28:41.922Z,23.97
2017-02-22T06:29:22.426Z,23.85
2017-02-22T06:30:02.926Z,23.97
2017-02-22T06:30:43.433Z,23.97
2017-02-22T06:31:23.935Z,23.93
2017-02-22T06:32:04.430Z,23.92
2017-02-22T06:32:44.929Z,23.93
2017-02-22T06:33:25.426Z,23.99
2017-02-22T06:34:05.927Z,23.9
2017-02-22T06:34:46.422Z,23.89
2017-02-22T06:35:26.921Z,23.99
2017-02-22T06:36:07.415Z,23.94
2017-02-22T06:36:47.907Z,24.02
2017-02-22T06:37:28.400Z,24.02
2017-02-22T06:38:08.900Z,24.03
2017-02-22T06:38:49.396Z,24.04
2017-02-22T06:39:29.894Z,24.07
2017-02-22T06:40:10.380Z,24
2017-02-22T06:40:50.874Z,24.02
2017-02-22T06:41:31.372Z,24.09
2017-02-22T06:42:11.865Z,24.11
2017-02-22T06:42:52.372Z,24.14
2017-02-22T06:43:32.853Z,24.03
2017-02-22T06:44:13.348Z,24.04
2017-02-22T06:44:53.868Z,23.97
2017-02-22T06:45:34.374Z,23.93
2017-02-22T06:46:14.854Z,24.08
2017-02-22T06:46:55.342Z,24.03
2017-02-22T06:47:35.828Z,24.03
2017-02-22T06:48:16.340Z,23.99
2017-02-22T06:48:56.827Z,24.03
2017-02-22T06:49:37.314Z,24.07
2017-02-22T06:50:17.809Z,24.04
2017-02-22T06:50:58.318Z,24.09
2017-02-22T06:51:38.812Z,23.97
2017-02-22T06:52:19.298Z,24.07
2017-02-22T06:52:59.784Z,24.07
2017-02-22T06:53:40.271Z,24.07
2017-02-22T06:54:20.760Z,24.07
2017-02-22T06:55:01.247Z,24.03
2017-02-22T06:55:41.733Z,24.03
2017-02-22T06:56:22.223Z,24.08
2017-02-22T06:57:02.713Z,24.09
2017-02-22T06:57:43.209Z,23.99
2017-02-22T06:58:23.705Z,24
2017-02-22T06:59:04.193Z,24.03
2017-02-22T06:59:44.694Z,24.07
2017-02-22T07:00:25.192Z,24.09
2017-02-22T07:01:05.688Z,24.04
2017-02-22T07:01:46.192Z,24.03
2017-02-22T07:02:26.686Z,24.09
2017-02-22T07:03:07.172Z,24.07
2017-02-22T07:03:47.668Z,24.02
2017-02-22T07:04:28.150Z,24.02
2017-02-22T07:05:08.649Z,24.07
2017-02-22T07:05:49.144Z,24.03
2017-02-22T07:06:29.649Z,24.02
2017-02-22T07:07:10.150Z,24.02
2017-02-22T07:07:50.644Z,24.03
2017-02-22T07:08:31.140Z,24.02
2017-02-22T07:09:11.633Z,24.08
2017-02-22T07:09:52.117Z,24.04
2017-02-22T07:10:32.597Z,24.03
2017-02-22T07:11:13.094Z,24.08
2017-02-22T07:11:53.592Z,24.03
2017-02-22T07:12:34.081Z,24.08
2017-02-22T07:13:14.589Z,24.09
2017-02-22T07:13:55.254Z,24.03
2017-02-22T07:14:35.765Z,24.03
2017-02-22T07:15:16.263Z,24.08
2017-02-22T07:15:56.758Z,24.03
2017-02-22T07:16:38.204Z,24.12
2017-02-22T07:17:18.709Z,24.03
2017-02-22T07:17:59.200Z,24.04
2017-02-22T07:18:39.683Z,24.04
2017-02-22T07:19:20.197Z,24.14
2017-02-22T07:20:00.682Z,24.09
2017-02-22T07:20:41.170Z,24.02
2017-02-22T07:21:21.679Z,24.04
2017-02-22T07:22:02.175Z,24.02
2017-02-22T07:22:43.260Z,24.07
2017-02-22T07:23:23.768Z,24.08
2017-02-22T07:24:04.673Z,24.02
2017-02-22T07:24:45.091Z,24.07
2017-02-22T07:25:25.595Z,24.09
2017-02-22T07:26:06.074Z,24.14
2017-02-22T07:26:46.564Z,24.08
2017-02-22T07:27:27.061Z,24
2017-02-22T07:28:07.568Z,24
2017-02-22T07:28:48.067Z,24.07
2017-02-22T07:29:28.594Z,23.94
2017-02-22T07:30:09.063Z,23.94
2017-02-22T07:30:49.562Z,23.94
2017-02-22T07:31:30.064Z,23.89
2017-02-22T07:32:10.559Z,23.92
2017-02-22T07:32:51.056Z,24.04
2017-02-22T07:33:31.560Z,23.92
2017-02-22T07:34:12.067Z,24.08
2017-02-22T07:34:52.588Z,24.02
2017-02-22T07:35:33.113Z,24.02
2017-02-22T07:36:13.634Z,24.03
2017-02-22T07:36:54.103Z,23.99
2017-02-22T07:37:34.597Z,24.04
2017-02-22T07:38:15.086Z,24
2017-02-22T07:38:55.580Z,23.94
2017-02-22T07:39:36.066Z,24.02
2017-02-22T07:40:16.544Z,23.89
2017-02-22T07:40:57.044Z,23.97
2017-02-22T07:41:37.556Z,23.92
2017-02-22T07:42:18.052Z,24.02
2017-02-22T07:42:58.529Z,24.04
2017-02-22T07:43:39.022Z,24.04
2017-02-22T07:44:19.505Z,23.94
2017-02-22T07:45:00.004Z,23.92
2017-02-22T07:45:40.508Z,23.96
2017-02-22T07:46:21.000Z,24
2017-02-22T07:47:01.500Z,23.94
2017-02-22T07:47:41.992Z,23.99
2017-02-22T07:48:22.480Z,23.99
2017-02-22T07:49:02.972Z,24
2017-02-22T07:49:43.811Z,24.03
2017-02-22T07:50:24.325Z,23.97
2017-02-22T07:51:04.799Z,24.03
2017-02-22T07:51:45.311Z,24.07
2017-02-22T07:52:25.804Z,23.97
2017-02-22T07:53:06.289Z,24
2017-02-22T07:53:46.798Z,23.93
2017-02-22T07:54:27.292Z,24.02
2017-02-22T07:55:07.796Z,24.11
2017-02-22T07:55:48.304Z,23.99
2017-02-22T07:56:28.788Z,24.07
2017-02-22T07:57:09.290Z,24.04
2017-02-22T07:57:49.791Z,24.04
2017-02-22T07:58:30.282Z,24.04
2017-02-22T07:59:11.718Z,24.04
2017-02-22T07:59:52.201Z,24.08
2017-02-22T08:00:32.692Z,24.03
2017-02-22T08:01:13.180Z,24.07
2017-02-22T08:01:53.694Z,24.07
2017-02-22T08:02:34.179Z,23.97
2017-02-22T08:03:14.670Z,24.03
2017-02-22T08:03:55.159Z,23.99
2017-02-22T08:04:35.665Z,24.02
2017-02-22T08:05:16.163Z,24.02
2017-02-22T08:05:56.661Z,24.03
2017-02-22T08:06:37.162Z,24.04
2017-02-22T08:07:17.651Z,24.03
2017-02-22T08:07:58.140Z,24.08
2017-02-22T08:08:38.619Z,24.03
2017-02-22T08:09:19.126Z,24.08
2017-02-22T08:09:59.599Z,24.03
2017-02-22T08:10:40.097Z,24.03
2017-02-22T08:11:20.591Z,24.08
2017-02-22T08:12:01.095Z,24.07
2017-02-22T08:12:41.579Z,24.03
2017-02-22T08:13:22.076Z,24
2017-02-22T08:14:02.574Z,24.04
2017-02-22T08:14:43.072Z,24.08
2017-02-22T08:15:23.614Z,24.04
2017-02-22T08:16:04.128Z,24.11
2017-02-22T08:16:44.619Z,24.09
2017-02-22T08:17:25.209Z,24.09
2017-02-22T08:18:05.703Z,24.09
2017-02-22T08:18:46.233Z,24.08
2017-02-22T08:19:26.707Z,24.03
2017-02-22T08:20:07.187Z,24.12
2017-02-22T08:20:47.674Z,24.04
2017-02-22T08:21:28.162Z,24.08
2017-02-22T08:22:08.670Z,24.09
2017-02-22T08:22:49.158Z,24.12
2017-02-22T08:23:29.651Z,24.12
2017-02-22T08:24:10.145Z,24.04
2017-02-22T08:24:50.634Z,24.07
2017-02-22T08:25:31.553Z,24.07
2017-02-22T08:26:12.092Z,24.03
2017-02-22T08:26:52.596Z,24.03
2017-02-22T08:27:33.107Z,24.08
2017-02-22T08:28:13.600Z,24.03
2017-02-22T08:28:54.104Z,24.02
2017-02-22T08:29:34.592Z,24.08
2017-02-22T08:30:15.099Z,24.12
2017-02-22T08:30:55.585Z,24.04
2017-02-22T08:31:36.076Z,24.04
2017-02-22T08:32:16.559Z,24.08
2017-02-22T08:32:57.061Z,24.09
2017-02-22T08:33:37.547Z,24.07
2017-02-22T08:34:18.045Z,24.15
2017-02-22T08:34:58.547Z,24.08
2017-02-22T08:35:39.035Z,24.08
2017-02-22T08:36:19.536Z,24.14
2017-02-22T08:37:00.046Z,24.11
2017-02-22T08:37:40.534Z,24.07
2017-02-22T08:38:21.046Z,24.11
2017-02-22T08:39:01.513Z,24.14
2017-02-22T08:39:41.997Z,24.12
2017-02-22T08:40:22.487Z,24.11
2017-02-22T08:41:02.990Z,24.12
2017-02-22T08:41:43.483Z,24.12
2017-02-22T08:42:23.972Z,24.07
2017-02-22T08:43:04.489Z,24.02
2017-02-22T08:43:44.981Z,24.22
2017-02-22T08:44:25.489Z,24.22
2017-02-22T08:45:05.973Z,24.15
2017-02-22T08:45:46.791Z,24.11
2017-02-22T08:46:27.290Z,24.15